PWSweather.com
Personal Weather Stations
Station Observations
IVENETOL9
Brugine, BrugineIT 35020

BrugineBrugineIT 35020

Lat: 45.2975, Lon: 11.9962777

Elevation: 19

Station Type: Davis Vantage Pro2 Plus

http://www.meteobrugine.it/

Latest ConditionsUpdated 6:46:03 AM GMT+01:01 Saturday, Sep 20, 2014
Currently Today's Max Today's Min Today's Average
Temperature 64.4°F18.0°C 65.7°F18.7°C 64.2°F17.9°C 64.6°F18.1°C
Dew Point 64.4°F18.0°C 65.7°F18.7°C 64.2°F17.9°C 64.6°F18.1°C
Winds Calm Calm Calm NCalm N - Calm Calm
Wind Gusts -- 1.0 mph1.6 kmh - -
Humidity 100% 100% 100% 100%
Pressure 30.02 in1016.6 mb 30.08 in1018.6 mb 30.00 in1015.9 mb -
Precipitation - 0.05 in1.3 mm - -
Hour Temp Dew Point Humidity Winds Wind Gusts Pressure Precip Precip Rate Daily Precip Total
06:46 AM 64.4°F18.0°C 64.4°F18.0°C 100% Calm Calm -- 30.02 in1016.6 mb 0.00 in0.0 mm 0.00 in/hr0.0 mm/hr 0.05 in1.3 mm
06:31 AM 64.3°F17.9°C 64.3°F17.9°C 100% Calm Calm -- 30.02 in1016.6 mb 0.00 in0.0 mm 0.00 in/hr0.0 mm/hr 0.05 in1.3 mm
06:16 AM 64.2°F17.9°C 64.2°F17.9°C 100% Calm Calm -- 30.02 in1016.6 mb 0.00 in0.0 mm 0.00 in/hr0.0 mm/hr 0.05 in1.3 mm
06:01 AM 64.3°F17.9°C 64.3°F17.9°C 100% Calm Calm -- 30.02 in1016.6 mb 0.00 in0.0 mm 0.00 in/hr0.0 mm/hr 0.05 in1.3 mm
05:47 AM 64.4°F18.0°C 64.4°F18.0°C 100% Calm Calm -- 30.00 in1015.9 mb 0.00 in0.0 mm 0.00 in/hr0.0 mm/hr 0.05 in1.3 mm
05:31 AM 64.5°F18.1°C 64.5°F18.1°C 100% Calm Calm -- 30.02 in1016.6 mb 0.00 in0.0 mm 0.00 in/hr0.0 mm/hr 0.05 in1.3 mm
05:15 AM 64.4°F18.0°C 64.4°F18.0°C 100% Calm Calm -- 30.03 in1016.9 mb 0.00 in0.0 mm 0.00 in/hr0.0 mm/hr 0.05 in1.3 mm
05:00 AM 64.4°F18.0°C 64.4°F18.0°C 100% Calm Calm -- 30.03 in1016.9 mb 0.03 in0.8 mm 0.04 in/hr1.0 mm/hr 0.05 in1.3 mm
04:46 AM 64.4°F18.0°C 64.4°F18.0°C 100% Calm Calm -- 30.03 in1016.9 mb 0.01 in0.3 mm 0.04 in/hr1.0 mm/hr 0.02 in0.5 mm
04:31 AM 64.2°F17.9°C 64.2°F17.9°C 100% Calm Calm -- 30.02 in1016.6 mb 0.00 in0.0 mm 0.00 in/hr0.0 mm/hr 0.01 in0.3 mm
04:16 AM 64.2°F17.9°C 64.2°F17.9°C 100% Calm Calm -- 30.02 in1016.6 mb 0.00 in0.0 mm 0.00 in/hr0.0 mm/hr 0.01 in0.3 mm
04:01 AM 64.2°F17.9°C 64.2°F17.9°C 100% Calm Calm -- 30.02 in1016.6 mb 0.00 in0.0 mm 0.00 in/hr0.0 mm/hr 0.01 in0.3 mm
03:46 AM 64.3°F17.9°C 64.3°F17.9°C 100% Calm Calm 1.0 mph1.6 kmh 30.03 in1016.9 mb 0.00 in0.0 mm 0.00 in/hr0.0 mm/hr 0.01 in0.3 mm
03:31 AM 64.3°F17.9°C 64.3°F17.9°C 100% Calm Calm -- 30.04 in1017.3 mb 0.01 in0.3 mm 0.04 in/hr1.0 mm/hr 0.01 in0.3 mm
03:16 AM 64.3°F17.9°C 64.3°F17.9°C 100% Calm Calm 1.0 mph1.6 kmh 30.04 in1017.3 mb 0.00 in0.0 mm 0.00 in/hr0.0 mm/hr 0.00 in0.0 mm
03:01 AM 64.4°F18.0°C 64.4°F18.0°C 100% Calm Calm -- 30.05 in1017.6 mb 0.00 in0.0 mm 0.00 in/hr0.0 mm/hr 0.00 in0.0 mm
02:46 AM 64.4°F18.0°C 64.4°F18.0°C 100% Calm Calm -- 30.05 in1017.6 mb 0.00 in0.0 mm 0.00 in/hr0.0 mm/hr 0.00 in0.0 mm
02:31 AM 64.3°F17.9°C 64.3°F17.9°C 100% Calm Calm -- 30.06 in1017.9 mb 0.00 in0.0 mm 0.00 in/hr0.0 mm/hr 0.00 in0.0 mm
02:15 AM 64.3°F17.9°C 64.3°F17.9°C 100% Calm Calm -- 30.06 in1017.9 mb 0.00 in0.0 mm 0.00 in/hr0.0 mm/hr 0.00 in0.0 mm
02:01 AM 64.5°F18.1°C 64.5°F18.1°C 100% Calm Calm 1.0 mph1.6 kmh 30.06 in1017.9 mb 0.00 in0.0 mm 0.00 in/hr0.0 mm/hr 0.00 in0.0 mm
01:46 AM 64.7°F18.2°C 64.7°F18.2°C 100% Calm Calm -- 30.07 in1018.3 mb 0.00 in0.0 mm 0.00 in/hr0.0 mm/hr 0.00 in0.0 mm
01:31 AM 64.8°F18.2°C 64.8°F18.2°C 100% Calm Calm -- 30.07 in1018.3 mb 0.00 in0.0 mm 0.00 in/hr0.0 mm/hr 0.00 in0.0 mm
01:16 AM 64.9°F18.3°C 64.9°F18.3°C 100% Calm Calm -- 30.07 in1018.3 mb 0.00 in0.0 mm 0.00 in/hr0.0 mm/hr 0.00 in0.0 mm
01:00 AM 65.0°F18.3°C 65.0°F18.3°C 100% Calm Calm -- 30.07 in1018.3 mb 0.00 in0.0 mm 0.00 in/hr0.0 mm/hr 0.00 in0.0 mm
12:46 AM 65.1°F18.4°C 65.1°F18.4°C 100% Calm Calm -- 30.08 in1018.6 mb 0.00 in0.0 mm 0.00 in/hr0.0 mm/hr 0.00 in0.0 mm
12:31 AM 65.3°F18.5°C 65.3°F18.5°C 100% Calm Calm -- 30.08 in1018.6 mb 0.00 in0.0 mm 0.00 in/hr0.0 mm/hr 0.00 in0.0 mm
12:15 AM 65.5°F18.6°C 65.5°F18.6°C 100% Calm Calm -- 30.08 in1018.6 mb 0.00 in0.0 mm 0.00 in/hr0.0 mm/hr 0.00 in0.0 mm
12:01 AM 65.7°F18.7°C 65.7°F18.7°C 100% Calm Calm -- 30.07 in1018.3 mb 0.00 in0.0 mm 0.00 in/hr0.0 mm/hr 0.00 in0.0 mm